sensor_id;sensor_type;location;lat;lon;timestamp;temperature;humidity
26990;DHT22;14537;47.788;11.858;2023-08-30T00:01:43;10.50;99.90
26990;DHT22;14537;47.788;11.858;2023-08-30T00:04:08;10.60;99.90
26990;DHT22;14537;47.788;11.858;2023-08-30T00:06:34;10.50;99.90
26990;DHT22;14537;47.788;11.858;2023-08-30T00:08:59;10.50;99.90
26990;DHT22;14537;47.788;11.858;2023-08-30T00:11:25;10.50;99.90
26990;DHT22;14537;47.788;11.858;2023-08-30T00:13:51;10.60;99.90
26990;DHT22;14537;47.788;11.858;2023-08-30T00:16:17;10.60;99.90
26990;DHT22;14537;47.788;11.858;2023-08-30T00:18:43;10.60;99.90
26990;DHT22;14537;47.788;11.858;2023-08-30T00:21:10;10.60;99.90
26990;DHT22;14537;47.788;11.858;2023-08-30T00:23:36;10.60;99.90
26990;DHT22;14537;47.788;11.858;2023-08-30T00:26:02;10.60;99.90
26990;DHT22;14537;47.788;11.858;2023-08-30T00:28:28;10.60;99.90
26990;DHT22;14537;47.788;11.858;2023-08-30T00:30:56;10.60;99.90
26990;DHT22;14537;47.788;11.858;2023-08-30T00:33:22;10.60;99.90
26990;DHT22;14537;47.788;11.858;2023-08-30T00:35:58;10.60;99.90
26990;DHT22;14537;47.788;11.858;2023-08-30T00:38:25;10.60;99.90
26990;DHT22;14537;47.788;11.858;2023-08-30T00:40:51;10.60;99.90
26990;DHT22;14537;47.788;11.858;2023-08-30T00:43:18;10.60;99.90
26990;DHT22;14537;47.788;11.858;2023-08-30T00:45:43;10.60;99.90
26990;DHT22;14537;47.788;11.858;2023-08-30T00:48:10;10.60;99.90
26990;DHT22;14537;47.788;11.858;2023-08-30T00:50:36;10.70;99.90
26990;DHT22;14537;47.788;11.858;2023-08-30T00:53:03;10.60;99.90
26990;DHT22;14537;47.788;11.858;2023-08-30T00:55:34;10.60;99.90
26990;DHT22;14537;47.788;11.858;2023-08-30T00:58:01;10.70;99.90
26990;DHT22;14537;47.788;11.858;2023-08-30T01:00:28;10.70;99.90
26990;DHT22;14537;47.788;11.858;2023-08-30T01:02:55;10.60;99.90
26990;DHT22;14537;47.788;11.858;2023-08-30T01:05:21;10.70;99.90
26990;DHT22;14537;47.788;11.858;2023-08-30T01:07:51;10.70;99.90
26990;DHT22;14537;47.788;11.858;2023-08-30T01:10:18;10.70;99.90
26990;DHT22;14537;47.788;11.858;2023-08-30T01:12:49;10.70;99.90
26990;DHT22;14537;47.788;11.858;2023-08-30T01:15:23;10.70;99.90
26990;DHT22;14537;47.788;11.858;2023-08-30T01:17:53;10.70;99.90
26990;DHT22;14537;47.788;11.858;2023-08-30T01:20:19;10.60;99.90
26990;DHT22;14537;47.788;11.858;2023-08-30T01:22:52;10.60;99.90
26990;DHT22;14537;47.788;11.858;2023-08-30T01:28:13;10.60;99.90
26990;DHT22;14537;47.788;11.858;2023-08-30T01:30:42;10.60;99.90
26990;DHT22;14537;47.788;11.858;2023-08-30T01:33:09;10.60;99.90
26990;DHT22;14537;47.788;11.858;2023-08-30T01:35:35;10.50;99.90
26990;DHT22;14537;47.788;11.858;2023-08-30T01:38:03;10.60;99.90
26990;DHT22;14537;47.788;11.858;2023-08-30T01:40:34;10.60;99.90
26990;DHT22;14537;47.788;11.858;2023-08-30T01:43:01;10.60;99.90
26990;DHT22;14537;47.788;11.858;2023-08-30T01:45:29;10.60;99.90
26990;DHT22;14537;47.788;11.858;2023-08-30T01:47:57;10.60;99.90
26990;DHT22;14537;47.788;11.858;2023-08-30T01:50:22;10.50;99.90
26990;DHT22;14537;47.788;11.858;2023-08-30T01:52:49;10.60;99.90
26990;DHT22;14537;47.788;11.858;2023-08-30T01:55:15;10.60;99.90
26990;DHT22;14537;47.788;11.858;2023-08-30T01:57:43;10.60;99.90
26990;DHT22;14537;47.788;11.858;2023-08-30T02:00:09;10.60;99.90
26990;DHT22;14537;47.788;11.858;2023-08-30T02:02:35;10.50;99.90
26990;DHT22;14537;47.788;11.858;2023-08-30T02:05:01;10.60;99.90
26990;DHT22;14537;47.788;11.858;2023-08-30T02:07:37;10.60;99.90
26990;DHT22;14537;47.788;11.858;2023-08-30T02:10:10;10.60;99.90
26990;DHT22;14537;47.788;11.858;2023-08-30T02:12:46;10.60;99.90
26990;DHT22;14537;47.788;11.858;2023-08-30T02:15:13;10.60;99.90
26990;DHT22;14537;47.788;11.858;2023-08-30T02:17:39;10.60;99.90
26990;DHT22;14537;47.788;11.858;2023-08-30T02:20:06;10.60;99.90
26990;DHT22;14537;47.788;11.858;2023-08-30T02:22:32;10.50;99.90
26990;DHT22;14537;47.788;11.858;2023-08-30T02:24:59;10.60;99.90
26990;DHT22;14537;47.788;11.858;2023-08-30T02:27:24;10.60;99.90
26990;DHT22;14537;47.788;11.858;2023-08-30T02:29:50;10.60;99.90
26990;DHT22;14537;47.788;11.858;2023-08-30T02:32:16;10.50;99.90
26990;DHT22;14537;47.788;11.858;2023-08-30T02:34:49;10.60;99.90
26990;DHT22;14537;47.788;11.858;2023-08-30T02:37:15;10.60;99.90
26990;DHT22;14537;47.788;11.858;2023-08-30T02:39:40;10.60;99.90
26990;DHT22;14537;47.788;11.858;2023-08-30T02:42:06;10.60;99.90
26990;DHT22;14537;47.788;11.858;2023-08-30T02:44:31;10.60;99.90
26990;DHT22;14537;47.788;11.858;2023-08-30T02:46:57;10.60;99.90
26990;DHT22;14537;47.788;11.858;2023-08-30T02:49:22;10.60;99.90
26990;DHT22;14537;47.788;11.858;2023-08-30T02:51:48;10.60;99.90
26990;DHT22;14537;47.788;11.858;2023-08-30T02:54:14;10.60;99.90
26990;DHT22;14537;47.788;11.858;2023-08-30T02:56:41;10.60;99.90
26990;DHT22;14537;47.788;11.858;2023-08-30T02:59:08;10.60;99.90
26990;DHT22;14537;47.788;11.858;2023-08-30T03:01:35;10.60;99.90
26990;DHT22;14537;47.788;11.858;2023-08-30T03:04:00;10.60;99.90
26990;DHT22;14537;47.788;11.858;2023-08-30T03:06:26;10.70;99.90
26990;DHT22;14537;47.788;11.858;2023-08-30T03:08:53;10.70;99.90
26990;DHT22;14537;47.788;11.858;2023-08-30T03:11:19;10.70;99.90
26990;DHT22;14537;47.788;11.858;2023-08-30T03:13:45;10.60;99.90
26990;DHT22;14537;47.788;11.858;2023-08-30T03:16:14;10.70;99.90
26990;DHT22;14537;47.788;11.858;2023-08-30T03:18:42;10.70;99.90
26990;DHT22;14537;47.788;11.858;2023-08-30T03:21:08;10.70;99.90
26990;DHT22;14537;47.788;11.858;2023-08-30T03:23:34;10.60;99.90
26990;DHT22;14537;47.788;11.858;2023-08-30T03:26:08;10.60;99.90
26990;DHT22;14537;47.788;11.858;2023-08-30T03:28:34;10.60;99.90
26990;DHT22;14537;47.788;11.858;2023-08-30T03:30:59;10.70;99.90
26990;DHT22;14537;47.788;11.858;2023-08-30T03:33:25;10.70;99.90
26990;DHT22;14537;47.788;11.858;2023-08-30T03:35:50;10.70;99.90
26990;DHT22;14537;47.788;11.858;2023-08-30T03:38:16;10.60;99.90
26990;DHT22;14537;47.788;11.858;2023-08-30T03:40:42;10.60;99.90
26990;DHT22;14537;47.788;11.858;2023-08-30T03:43:07;10.60;99.90
26990;DHT22;14537;47.788;11.858;2023-08-30T03:45:36;10.60;99.90
26990;DHT22;14537;47.788;11.858;2023-08-30T03:48:03;10.60;99.90
26990;DHT22;14537;47.788;11.858;2023-08-30T03:50:29;10.60;99.90
26990;DHT22;14537;47.788;11.858;2023-08-30T03:52:55;10.60;99.90
26990;DHT22;14537;47.788;11.858;2023-08-30T03:55:20;10.50;99.90
26990;DHT22;14537;47.788;11.858;2023-08-30T03:57:48;10.50;99.90
26990;DHT22;14537;47.788;11.858;2023-08-30T04:00:13;10.50;99.90
26990;DHT22;14537;47.788;11.858;2023-08-30T04:02:39;10.50;99.90
26990;DHT22;14537;47.788;11.858;2023-08-30T04:05:05;10.50;99.90
26990;DHT22;14537;47.788;11.858;2023-08-30T04:07:35;10.50;99.90
26990;DHT22;14537;47.788;11.858;2023-08-30T04:10:01;10.50;99.90
26990;DHT22;14537;47.788;11.858;2023-08-30T04:12:28;10.50;99.90
26990;DHT22;14537;47.788;11.858;2023-08-30T04:14:54;10.60;99.90
26990;DHT22;14537;47.788;11.858;2023-08-30T04:17:19;10.50;99.90
26990;DHT22;14537;47.788;11.858;2023-08-30T04:19:45;10.50;99.90
26990;DHT22;14537;47.788;11.858;2023-08-30T04:22:10;10.50;99.90
26990;DHT22;14537;47.788;11.858;2023-08-30T04:24:36;10.60;99.90
26990;DHT22;14537;47.788;11.858;2023-08-30T04:27:02;10.60;99.90
26990;DHT22;14537;47.788;11.858;2023-08-30T04:29:27;10.60;99.90
26990;DHT22;14537;47.788;11.858;2023-08-30T04:31:53;10.60;99.90
26990;DHT22;14537;47.788;11.858;2023-08-30T04:34:19;10.60;99.90
26990;DHT22;14537;47.788;11.858;2023-08-30T04:36:45;10.50;99.90
26990;DHT22;14537;47.788;11.858;2023-08-30T04:39:12;10.50;99.90
26990;DHT22;14537;47.788;11.858;2023-08-30T04:41:38;10.50;99.90
26990;DHT22;14537;47.788;11.858;2023-08-30T04:44:03;10.60;99.90
26990;DHT22;14537;47.788;11.858;2023-08-30T04:46:29;10.60;99.90
26990;DHT22;14537;47.788;11.858;2023-08-30T04:48:55;10.60;99.90
26990;DHT22;14537;47.788;11.858;2023-08-30T04:51:20;10.60;99.90
26990;DHT22;14537;47.788;11.858;2023-08-30T04:53:46;10.60;99.90
26990;DHT22;14537;47.788;11.858;2023-08-30T04:56:12;10.60;99.90
26990;DHT22;14537;47.788;11.858;2023-08-30T04:58:38;10.60;99.90
26990;DHT22;14537;47.788;11.858;2023-08-30T05:01:04;10.60;99.90
26990;DHT22;14537;47.788;11.858;2023-08-30T05:03:30;10.60;99.90
26990;DHT22;14537;47.788;11.858;2023-08-30T05:05:56;10.70;99.90
26990;DHT22;14537;47.788;11.858;2023-08-30T05:08:21;10.70;99.90
26990;DHT22;14537;47.788;11.858;2023-08-30T05:10:47;10.70;99.90
26990;DHT22;14537;47.788;11.858;2023-08-30T05:13:16;10.70;99.90
26990;DHT22;14537;47.788;11.858;2023-08-30T05:15:42;10.70;99.90
26990;DHT22;14537;47.788;11.858;2023-08-30T05:18:07;10.70;99.90
26990;DHT22;14537;47.788;11.858;2023-08-30T05:20:33;10.70;99.90
26990;DHT22;14537;47.788;11.858;2023-08-30T05:22:59;10.70;99.90
26990;DHT22;14537;47.788;11.858;2023-08-30T05:25:24;10.70;99.90
26990;DHT22;14537;47.788;11.858;2023-08-30T05:27:50;10.70;99.90
26990;DHT22;14537;47.788;11.858;2023-08-30T05:30:16;10.70;99.90
26990;DHT22;14537;47.788;11.858;2023-08-30T05:32:41;10.70;99.90
26990;DHT22;14537;47.788;11.858;2023-08-30T05:35:07;10.70;99.90
26990;DHT22;14537;47.788;11.858;2023-08-30T05:37:33;10.70;99.90
26990;DHT22;14537;47.788;11.858;2023-08-30T05:39:59;10.70;99.90
26990;DHT22;14537;47.788;11.858;2023-08-30T05:42:24;10.70;99.90
26990;DHT22;14537;47.788;11.858;2023-08-30T05:44:50;10.70;99.90
26990;DHT22;14537;47.788;11.858;2023-08-30T05:47:15;10.70;99.90
26990;DHT22;14537;47.788;11.858;2023-08-30T05:49:42;10.80;99.90
26990;DHT22;14537;47.788;11.858;2023-08-30T05:52:08;10.80;99.90
26990;DHT22;14537;47.788;11.858;2023-08-30T05:54:33;10.80;99.90
26990;DHT22;14537;47.788;11.858;2023-08-30T05:56:59;10.80;99.90
26990;DHT22;14537;47.788;11.858;2023-08-30T05:59:25;10.80;99.90
26990;DHT22;14537;47.788;11.858;2023-08-30T06:01:51;10.80;99.90
26990;DHT22;14537;47.788;11.858;2023-08-30T06:04:16;10.90;99.90
26990;DHT22;14537;47.788;11.858;2023-08-30T06:06:42;10.90;99.90
26990;DHT22;14537;47.788;11.858;2023-08-30T06:09:07;10.90;99.90
26990;DHT22;14537;47.788;11.858;2023-08-30T06:11:33;11.00;99.90
26990;DHT22;14537;47.788;11.858;2023-08-30T06:13:59;11.00;99.90
26990;DHT22;14537;47.788;11.858;2023-08-30T06:16:25;11.00;99.90
26990;DHT22;14537;47.788;11.858;2023-08-30T06:18:50;11.00;99.90
26990;DHT22;14537;47.788;11.858;2023-08-30T06:21:16;11.00;99.90
26990;DHT22;14537;47.788;11.858;2023-08-30T06:23:42;11.00;99.90
26990;DHT22;14537;47.788;11.858;2023-08-30T06:26:07;11.10;99.90
26990;DHT22;14537;47.788;11.858;2023-08-30T06:28:33;11.10;99.90
26990;DHT22;14537;47.788;11.858;2023-08-30T06:30:59;11.00;99.90
26990;DHT22;14537;47.788;11.858;2023-08-30T06:33:24;11.10;99.90
26990;DHT22;14537;47.788;11.858;2023-08-30T06:35:50;11.10;99.90
26990;DHT22;14537;47.788;11.858;2023-08-30T06:38:16;11.10;99.90
26990;DHT22;14537;47.788;11.858;2023-08-30T06:40:46;11.10;99.90
26990;DHT22;14537;47.788;11.858;2023-08-30T06:43:12;11.10;99.90
26990;DHT22;14537;47.788;11.858;2023-08-30T06:45:41;11.10;99.90
26990;DHT22;14537;47.788;11.858;2023-08-30T06:48:08;11.10;99.90
26990;DHT22;14537;47.788;11.858;2023-08-30T06:50:34;11.10;99.90
26990;DHT22;14537;47.788;11.858;2023-08-30T06:53:00;11.10;99.90
26990;DHT22;14537;47.788;11.858;2023-08-30T06:55:25;11.10;99.90
26990;DHT22;14537;47.788;11.858;2023-08-30T06:57:51;11.10;99.90
26990;DHT22;14537;47.788;11.858;2023-08-30T07:00:17;11.10;99.90
26990;DHT22;14537;47.788;11.858;2023-08-30T07:02:43;11.10;99.90
26990;DHT22;14537;47.788;11.858;2023-08-30T07:05:11;11.10;99.90
26990;DHT22;14537;47.788;11.858;2023-08-30T07:07:37;11.10;99.90
26990;DHT22;14537;47.788;11.858;2023-08-30T07:10:06;11.10;99.90
26990;DHT22;14537;47.788;11.858;2023-08-30T07:12:31;11.10;99.90
26990;DHT22;14537;47.788;11.858;2023-08-30T07:14:57;11.10;99.90
26990;DHT22;14537;47.788;11.858;2023-08-30T07:17:23;11.00;99.90
26990;DHT22;14537;47.788;11.858;2023-08-30T07:19:49;11.10;99.90
26990;DHT22;14537;47.788;11.858;2023-08-30T07:22:15;11.10;99.90
26990;DHT22;14537;47.788;11.858;2023-08-30T07:24:44;11.10;99.90
26990;DHT22;14537;47.788;11.858;2023-08-30T07:27:10;11.10;99.90
26990;DHT22;14537;47.788;11.858;2023-08-30T07:29:38;11.10;99.90
26990;DHT22;14537;47.788;11.858;2023-08-30T07:32:05;11.10;99.90
26990;DHT22;14537;47.788;11.858;2023-08-30T07:34:31;11.20;99.90
26990;DHT22;14537;47.788;11.858;2023-08-30T07:36:57;11.10;99.90
26990;DHT22;14537;47.788;11.858;2023-08-30T07:39:22;11.10;99.90
26990;DHT22;14537;47.788;11.858;2023-08-30T07:41:48;11.20;99.90
26990;DHT22;14537;47.788;11.858;2023-08-30T07:44:13;11.30;99.90
26990;DHT22;14537;47.788;11.858;2023-08-30T07:46:39;11.30;99.90
26990;DHT22;14537;47.788;11.858;2023-08-30T07:49:05;11.40;99.90
26990;DHT22;14537;47.788;11.858;2023-08-30T07:51:31;11.40;99.90
26990;DHT22;14537;47.788;11.858;2023-08-30T07:53:56;11.40;99.90
26990;DHT22;14537;47.788;11.858;2023-08-30T07:56:22;11.50;99.90
26990;DHT22;14537;47.788;11.858;2023-08-30T07:58:47;11.50;99.90
26990;DHT22;14537;47.788;11.858;2023-08-30T08:01:13;11.50;99.90
26990;DHT22;14537;47.788;11.858;2023-08-30T08:03:39;11.50;99.90
26990;DHT22;14537;47.788;11.858;2023-08-30T08:06:06;11.50;99.90
26990;DHT22;14537;47.788;11.858;2023-08-30T08:08:32;11.50;99.90
26990;DHT22;14537;47.788;11.858;2023-08-30T08:10:59;11.60;99.90
26990;DHT22;14537;47.788;11.858;2023-08-30T08:13:25;11.60;99.90
26990;DHT22;14537;47.788;11.858;2023-08-30T08:15:50;11.60;99.90
26990;DHT22;14537;47.788;11.858;2023-08-30T08:18:16;11.50;99.90
26990;DHT22;14537;47.788;11.858;2023-08-30T08:20:42;11.60;99.90
26990;DHT22;14537;47.788;11.858;2023-08-30T08:23:08;11.50;99.90
26990;DHT22;14537;47.788;11.858;2023-08-30T08:25:34;11.60;99.90
26990;DHT22;14537;47.788;11.858;2023-08-30T08:27:59;11.70;99.90
26990;DHT22;14537;47.788;11.858;2023-08-30T08:30:25;11.70;99.90
26990;DHT22;14537;47.788;11.858;2023-08-30T08:32:50;11.90;99.90
26990;DHT22;14537;47.788;11.858;2023-08-30T08:35:16;12.00;99.90
26990;DHT22;14537;47.788;11.858;2023-08-30T08:37:42;12.10;99.90
26990;DHT22;14537;47.788;11.858;2023-08-30T08:40:08;12.20;99.90
26990;DHT22;14537;47.788;11.858;2023-08-30T08:42:35;12.10;99.90
26990;DHT22;14537;47.788;11.858;2023-08-30T08:45:02;12.20;99.90
26990;DHT22;14537;47.788;11.858;2023-08-30T08:47:30;12.10;99.90
26990;DHT22;14537;47.788;11.858;2023-08-30T08:49:56;12.10;99.90
26990;DHT22;14537;47.788;11.858;2023-08-30T08:52:23;12.20;99.90
26990;DHT22;14537;47.788;11.858;2023-08-30T08:54:49;12.30;99.90
26990;DHT22;14537;47.788;11.858;2023-08-30T08:57:15;12.40;99.90
26990;DHT22;14537;47.788;11.858;2023-08-30T08:59:40;12.30;99.90
26990;DHT22;14537;47.788;11.858;2023-08-30T09:02:08;12.30;99.90
26990;DHT22;14537;47.788;11.858;2023-08-30T09:04:35;12.40;99.90
26990;DHT22;14537;47.788;11.858;2023-08-30T09:07:01;12.40;99.90
26990;DHT22;14537;47.788;11.858;2023-08-30T09:09:27;12.40;99.90
26990;DHT22;14537;47.788;11.858;2023-08-30T09:11:53;12.70;99.90
26990;DHT22;14537;47.788;11.858;2023-08-30T09:14:19;12.90;99.90
26990;DHT22;14537;47.788;11.858;2023-08-30T09:17:14;13.10;99.90
26990;DHT22;14537;47.788;11.858;2023-08-30T09:19:40;13.30;99.90
26990;DHT22;14537;47.788;11.858;2023-08-30T09:22:05;13.20;99.90
26990;DHT22;14537;47.788;11.858;2023-08-30T09:24:38;13.40;99.90
26990;DHT22;14537;47.788;11.858;2023-08-30T09:27:05;13.70;99.90
26990;DHT22;14537;47.788;11.858;2023-08-30T09:29:31;13.80;99.90
26990;DHT22;14537;47.788;11.858;2023-08-30T09:32:01;14.00;99.90
26990;DHT22;14537;47.788;11.858;2023-08-30T09:34:26;14.20;99.90
26990;DHT22;14537;47.788;11.858;2023-08-30T09:36:53;14.40;99.90
26990;DHT22;14537;47.788;11.858;2023-08-30T09:39:19;14.30;99.90
26990;DHT22;14537;47.788;11.858;2023-08-30T09:41:46;14.40;99.90
26990;DHT22;14537;47.788;11.858;2023-08-30T09:44:16;14.40;99.90
26990;DHT22;14537;47.788;11.858;2023-08-30T09:46:46;14.40;99.90
26990;DHT22;14537;47.788;11.858;2023-08-30T09:49:12;14.60;99.90
26990;DHT22;14537;47.788;11.858;2023-08-30T09:51:40;14.70;99.90
26990;DHT22;14537;47.788;11.858;2023-08-30T09:54:16;14.80;99.90
26990;DHT22;14537;47.788;11.858;2023-08-30T09:56:43;14.60;99.90
26990;DHT22;14537;47.788;11.858;2023-08-30T09:59:13;14.50;99.90
26990;DHT22;14537;47.788;11.858;2023-08-30T10:01:43;14.50;99.90
26990;DHT22;14537;47.788;11.858;2023-08-30T10:04:09;14.20;99.90
26990;DHT22;14537;47.788;11.858;2023-08-30T10:06:39;14.20;99.90
26990;DHT22;14537;47.788;11.858;2023-08-30T10:09:07;14.00;99.90
26990;DHT22;14537;47.788;11.858;2023-08-30T10:11:37;13.90;99.90
26990;DHT22;14537;47.788;11.858;2023-08-30T10:14:04;14.10;99.90
26990;DHT22;14537;47.788;11.858;2023-08-30T10:16:40;14.00;99.90
26990;DHT22;14537;47.788;11.858;2023-08-30T10:19:18;13.90;99.90
26990;DHT22;14537;47.788;11.858;2023-08-30T10:21:48;14.10;99.90
26990;DHT22;14537;47.788;11.858;2023-08-30T10:24:16;14.30;99.90
26990;DHT22;14537;47.788;11.858;2023-08-30T10:26:45;14.30;99.90
26990;DHT22;14537;47.788;11.858;2023-08-30T10:29:13;14.40;99.90
26990;DHT22;14537;47.788;11.858;2023-08-30T10:31:40;14.50;99.90
26990;DHT22;14537;47.788;11.858;2023-08-30T10:34:16;14.60;99.90
26990;DHT22;14537;47.788;11.858;2023-08-30T10:36:43;14.70;99.90
26990;DHT22;14537;47.788;11.858;2023-08-30T10:39:13;14.90;99.90
26990;DHT22;14537;47.788;11.858;2023-08-30T10:41:54;15.10;99.90
26990;DHT22;14537;47.788;11.858;2023-08-30T10:44:22;15.30;99.90
26990;DHT22;14537;47.788;11.858;2023-08-30T10:46:52;15.40;99.90
26990;DHT22;14537;47.788;11.858;2023-08-30T10:49:19;15.70;99.90
26990;DHT22;14537;47.788;11.858;2023-08-30T10:51:45;16.00;99.90
26990;DHT22;14537;47.788;11.858;2023-08-30T10:54:15;16.20;99.90
26990;DHT22;14537;47.788;11.858;2023-08-30T10:59:20;16.50;99.90
26990;DHT22;14537;47.788;11.858;2023-08-30T11:01:49;16.60;99.90
26990;DHT22;14537;47.788;11.858;2023-08-30T11:04:16;16.80;99.90
26990;DHT22;14537;47.788;11.858;2023-08-30T11:06:44;16.80;99.90
26990;DHT22;14537;47.788;11.858;2023-08-30T11:09:16;16.70;99.90
26990;DHT22;14537;47.788;11.858;2023-08-30T11:11:45;16.30;99.90
26990;DHT22;14537;47.788;11.858;2023-08-30T11:14:11;16.10;99.90
26990;DHT22;14537;47.788;11.858;2023-08-30T11:16:38;15.90;99.90
26990;DHT22;14537;47.788;11.858;2023-08-30T11:19:05;15.70;99.90
26990;DHT22;14537;47.788;11.858;2023-08-30T11:21:32;15.60;99.90
26990;DHT22;14537;47.788;11.858;2023-08-30T11:23:58;15.60;99.90
26990;DHT22;14537;47.788;11.858;2023-08-30T11:26:24;15.40;99.90
26990;DHT22;14537;47.788;11.858;2023-08-30T11:28:50;15.40;99.90
26990;DHT22;14537;47.788;11.858;2023-08-30T11:31:26;15.30;99.90
26990;DHT22;14537;47.788;11.858;2023-08-30T11:33:53;15.10;99.90
26990;DHT22;14537;47.788;11.858;2023-08-30T11:36:21;15.00;99.90
26990;DHT22;14537;47.788;11.858;2023-08-30T11:38:49;15.10;99.90
26990;DHT22;14537;47.788;11.858;2023-08-30T11:41:14;15.30;99.90
26990;DHT22;14537;47.788;11.858;2023-08-30T11:43:40;15.60;99.90
26990;DHT22;14537;47.788;11.858;2023-08-30T11:46:06;15.70;99.90
26990;DHT22;14537;47.788;11.858;2023-08-30T11:48:32;15.90;99.90
26990;DHT22;14537;47.788;11.858;2023-08-30T11:50:58;15.80;99.90
26990;DHT22;14537;47.788;11.858;2023-08-30T11:53:24;16.00;99.90
26990;DHT22;14537;47.788;11.858;2023-08-30T11:55:51;16.20;99.90
26990;DHT22;14537;47.788;11.858;2023-08-30T11:58:18;16.50;99.90
26990;DHT22;14537;47.788;11.858;2023-08-30T12:00:44;16.70;99.90
26990;DHT22;14537;47.788;11.858;2023-08-30T12:03:13;16.90;99.90
26990;DHT22;14537;47.788;11.858;2023-08-30T12:05:50;17.10;99.90
26990;DHT22;14537;47.788;11.858;2023-08-30T12:08:25;17.20;99.90
26990;DHT22;14537;47.788;11.858;2023-08-30T12:10:52;17.30;99.90
26990;DHT22;14537;47.788;11.858;2023-08-30T12:13:28;17.50;99.90
26990;DHT22;14537;47.788;11.858;2023-08-30T12:15:55;17.60;99.90
26990;DHT22;14537;47.788;11.858;2023-08-30T12:18:21;17.70;99.90
26990;DHT22;14537;47.788;11.858;2023-08-30T12:20:59;17.90;99.90
26990;DHT22;14537;47.788;11.858;2023-08-30T12:23:34;18.10;99.90
26990;DHT22;14537;47.788;11.858;2023-08-30T12:28:31;18.20;99.90
26990;DHT22;14537;47.788;11.858;2023-08-30T12:30:57;18.30;99.90
26990;DHT22;14537;47.788;11.858;2023-08-30T12:33:23;18.30;99.90
26990;DHT22;14537;47.788;11.858;2023-08-30T12:35:54;18.40;99.90
26990;DHT22;14537;47.788;11.858;2023-08-30T12:38:20;18.30;99.90
26990;DHT22;14537;47.788;11.858;2023-08-30T12:40:48;18.20;99.90
26990;DHT22;14537;47.788;11.858;2023-08-30T12:43:15;18.10;99.90
26990;DHT22;14537;47.788;11.858;2023-08-30T12:45:41;18.00;99.90
26990;DHT22;14537;47.788;11.858;2023-08-30T12:48:07;18.00;99.90
26990;DHT22;14537;47.788;11.858;2023-08-30T12:50:35;18.00;99.90
26990;DHT22;14537;47.788;11.858;2023-08-30T12:53:01;18.20;99.90
26990;DHT22;14537;47.788;11.858;2023-08-30T12:55:27;18.30;99.90
26990;DHT22;14537;47.788;11.858;2023-08-30T12:57:53;18.30;99.90
26990;DHT22;14537;47.788;11.858;2023-08-30T13:00:18;18.30;99.90
26990;DHT22;14537;47.788;11.858;2023-08-30T13:02:44;18.40;99.90
26990;DHT22;14537;47.788;11.858;2023-08-30T13:05:10;18.30;99.90
26990;DHT22;14537;47.788;11.858;2023-08-30T13:07:37;18.30;99.90
26990;DHT22;14537;47.788;11.858;2023-08-30T13:10:03;18.20;99.90
26990;DHT22;14537;47.788;11.858;2023-08-30T13:12:29;18.20;99.90
26990;DHT22;14537;47.788;11.858;2023-08-30T13:14:54;18.20;99.90
26990;DHT22;14537;47.788;11.858;2023-08-30T13:17:20;18.10;99.90
26990;DHT22;14537;47.788;11.858;2023-08-30T13:19:45;18.50;99.90
26990;DHT22;14537;47.788;11.858;2023-08-30T13:22:11;18.80;99.90
26990;DHT22;14537;47.788;11.858;2023-08-30T13:24:37;18.90;99.90
26990;DHT22;14537;47.788;11.858;2023-08-30T13:27:03;19.10;99.90
26990;DHT22;14537;47.788;11.858;2023-08-30T13:29:29;19.20;99.90
26990;DHT22;14537;47.788;11.858;2023-08-30T13:31:55;19.20;99.90
26990;DHT22;14537;47.788;11.858;2023-08-30T13:34:20;19.20;99.90
26990;DHT22;14537;47.788;11.858;2023-08-30T13:36:46;19.20;99.90
26990;DHT22;14537;47.788;11.858;2023-08-30T13:39:12;19.40;99.90
26990;DHT22;14537;47.788;11.858;2023-08-30T13:41:37;19.50;99.90
26990;DHT22;14537;47.788;11.858;2023-08-30T13:44:03;19.60;99.90
26990;DHT22;14537;47.788;11.858;2023-08-30T13:46:29;19.50;99.90
26990;DHT22;14537;47.788;11.858;2023-08-30T13:48:55;19.40;99.90
26990;DHT22;14537;47.788;11.858;2023-08-30T13:51:25;19.30;99.90
26990;DHT22;14537;47.788;11.858;2023-08-30T13:53:52;19.40;99.90
26990;DHT22;14537;47.788;11.858;2023-08-30T13:56:19;19.30;99.90
26990;DHT22;14537;47.788;11.858;2023-08-30T13:58:45;19.20;99.90
26990;DHT22;14537;47.788;11.858;2023-08-30T14:01:11;19.40;99.90
26990;DHT22;14537;47.788;11.858;2023-08-30T14:03:37;19.60;99.90
26990;DHT22;14537;47.788;11.858;2023-08-30T14:06:02;19.50;99.90
26990;DHT22;14537;47.788;11.858;2023-08-30T14:08:28;19.60;99.90
26990;DHT22;14537;47.788;11.858;2023-08-30T14:10:57;19.70;99.90
26990;DHT22;14537;47.788;11.858;2023-08-30T14:13:23;19.90;99.90
26990;DHT22;14537;47.788;11.858;2023-08-30T14:15:49;19.90;99.90
26990;DHT22;14537;47.788;11.858;2023-08-30T14:18:15;19.90;99.90
26990;DHT22;14537;47.788;11.858;2023-08-30T14:20:42;20.00;99.90
26990;DHT22;14537;47.788;11.858;2023-08-30T14:23:10;20.10;99.90
26990;DHT22;14537;47.788;11.858;2023-08-30T14:25:36;20.20;99.90
26990;DHT22;14537;47.788;11.858;2023-08-30T14:28:02;20.20;99.90
26990;DHT22;14537;47.788;11.858;2023-08-30T14:30:31;20.20;99.90
26990;DHT22;14537;47.788;11.858;2023-08-30T14:32:57;20.30;99.90
26990;DHT22;14537;47.788;11.858;2023-08-30T14:35:23;20.40;99.90
26990;DHT22;14537;47.788;11.858;2023-08-30T14:37:50;20.40;99.90
26990;DHT22;14537;47.788;11.858;2023-08-30T14:40:16;20.60;99.90
26990;DHT22;14537;47.788;11.858;2023-08-30T14:42:42;20.60;99.90
26990;DHT22;14537;47.788;11.858;2023-08-30T14:45:08;20.60;99.90
26990;DHT22;14537;47.788;11.858;2023-08-30T14:47:34;20.50;99.90
26990;DHT22;14537;47.788;11.858;2023-08-30T14:50:00;20.60;99.90
26990;DHT22;14537;47.788;11.858;2023-08-30T14:52:29;20.70;99.90
26990;DHT22;14537;47.788;11.858;2023-08-30T14:54:55;20.70;99.90
26990;DHT22;14537;47.788;11.858;2023-08-30T14:57:20;20.70;99.90
26990;DHT22;14537;47.788;11.858;2023-08-30T14:59:47;20.20;99.90
26990;DHT22;14537;47.788;11.858;2023-08-30T15:02:13;19.90;99.90
26990;DHT22;14537;47.788;11.858;2023-08-30T15:04:39;20.20;99.90
26990;DHT22;14537;47.788;11.858;2023-08-30T15:07:05;20.10;99.90
26990;DHT22;14537;47.788;11.858;2023-08-30T15:09:31;20.10;99.90
26990;DHT22;14537;47.788;11.858;2023-08-30T15:11:56;19.90;99.90
26990;DHT22;14537;47.788;11.858;2023-08-30T15:14:24;19.90;99.90
26990;DHT22;14537;47.788;11.858;2023-08-30T15:16:49;19.80;99.90
26990;DHT22;14537;47.788;11.858;2023-08-30T15:19:15;19.60;99.90
26990;DHT22;14537;47.788;11.858;2023-08-30T15:21:41;19.30;99.90